createdAt,value
2023-09-19T00:01:04.045Z,80.78
2023-09-19T00:03:32.766Z,81.33
2023-09-19T00:06:01.421Z,81.41
2023-09-19T00:08:33.175Z,80.18
2023-09-19T00:11:07.493Z,80.86
2023-09-19T00:13:35.294Z,81.75
2023-09-19T00:16:02.801Z,80.66
2023-09-19T00:18:30.811Z,80.09
2023-09-19T00:20:59.953Z,80.28
2023-09-19T00:23:27.219Z,79.89
2023-09-19T00:25:58.902Z,80.17
2023-09-19T00:28:26.242Z,80.73
2023-09-19T00:30:53.523Z,80.92
2023-09-19T00:33:20.983Z,81.01
2023-09-19T00:35:54.125Z,81.37
2023-09-19T00:38:24.261Z,80.16
2023-09-19T00:40:53.623Z,81.15
2023-09-19T00:43:22.027Z,80.49
2023-09-19T00:45:52.719Z,80.28
2023-09-19T00:48:21.105Z,81.55
2023-09-19T00:50:49.478Z,81.76
2023-09-19T00:53:22.169Z,80.93
2023-09-19T00:55:50.999Z,80.42
2023-09-19T00:58:20.023Z,80.29
2023-09-19T01:00:49.607Z,80.70
2023-09-19T01:03:16.916Z,80.92
2023-09-19T01:05:44.225Z,80.60
2023-09-19T01:08:13.107Z,80.36
2023-09-19T01:10:53.945Z,80.53
2023-09-19T01:13:32.672Z,80.08
2023-09-19T01:16:18.393Z,80.18
2023-09-19T01:19:14.641Z,80.58
2023-09-19T01:22:04.371Z,81.80
2023-09-19T01:24:51.009Z,82.38
2023-09-19T01:27:35.415Z,81.12
2023-09-19T01:30:14.960Z,80.85
2023-09-19T01:32:43.733Z,80.81
2023-09-19T01:35:14.520Z,81.54
2023-09-19T01:37:45.356Z,81.32
2023-09-19T01:40:19.106Z,82.04
2023-09-19T01:43:01.596Z,81.97
2023-09-19T01:45:52.590Z,82.06
2023-09-19T01:48:33.227Z,81.25
2023-09-19T01:51:04.214Z,81.43
2023-09-19T01:53:38.244Z,81.46
2023-09-19T01:56:10.009Z,81.32
2023-09-19T01:58:45.376Z,81.41
2023-09-19T02:01:16.978Z,81.41
2023-09-19T02:03:46.111Z,82.24
2023-09-19T02:06:17.269Z,81.37
2023-09-19T02:08:44.503Z,80.72
2023-09-19T02:11:12.464Z,80.66
2023-09-19T02:13:40.325Z,80.57
2023-09-19T02:16:08.708Z,80.43
2023-09-19T02:18:37.242Z,80.65
2023-09-19T02:21:05.711Z,82.51
2023-09-19T02:23:32.891Z,80.97
2023-09-19T02:26:02.203Z,80.52
2023-09-19T02:28:33.688Z,80.22
2023-09-19T02:31:01.410Z,80.34
2023-09-19T02:33:30.007Z,80.93
2023-09-19T02:35:59.668Z,81.62
2023-09-19T02:38:27.638Z,81.23
2023-09-19T02:40:56.573Z,81.75
2023-09-19T02:43:24.945Z,82.19
2023-09-19T02:45:54.817Z,81.86
2023-09-19T02:48:22.809Z,81.51
2023-09-19T02:50:51.930Z,81.21
2023-09-19T02:53:20.606Z,80.88
2023-09-19T02:55:48.628Z,81.61
2023-09-19T02:58:16.420Z,83.12
2023-09-19T03:00:43.892Z,82.00
2023-09-19T03:03:11.068Z,80.80
2023-09-19T03:05:39.736Z,81.45
2023-09-19T03:08:07.787Z,81.58
2023-09-19T03:10:34.771Z,80.82
2023-09-19T03:13:01.851Z,80.55
2023-09-19T03:15:28.821Z,80.86
2023-09-19T03:17:55.859Z,81.38
2023-09-19T03:20:26.548Z,81.14
2023-09-19T03:22:54.159Z,81.24
2023-09-19T03:25:21.467Z,81.22
2023-09-19T03:27:48.645Z,81.00
2023-09-19T03:30:17.657Z,80.49
2023-09-19T03:32:48.789Z,81.70
2023-09-19T03:35:16.261Z,82.14
2023-09-19T03:37:44.026Z,81.68
2023-09-19T03:40:12.438Z,81.13
2023-09-19T03:42:40.808Z,80.95
2023-09-19T03:45:13.838Z,80.35
2023-09-19T03:47:42.118Z,80.68
2023-09-19T03:50:12.527Z,80.66
2023-09-19T03:52:40.103Z,81.10
2023-09-19T03:55:07.640Z,80.83
2023-09-19T03:57:37.824Z,81.66
2023-09-19T04:00:07.015Z,81.49
2023-09-19T04:02:34.738Z,81.22
2023-09-19T04:05:01.979Z,81.29
2023-09-19T04:07:30.570Z,81.63
2023-09-19T04:09:57.768Z,82.14
2023-09-19T04:12:25.048Z,82.46
2023-09-19T04:14:53.305Z,82.60
2023-09-19T04:17:20.698Z,82.15
2023-09-19T04:19:48.162Z,82.42
2023-09-19T04:22:15.419Z,81.72
2023-09-19T04:24:42.616Z,81.90
2023-09-19T04:27:11.464Z,82.41
2023-09-19T04:29:39.520Z,82.85
2023-09-19T04:32:07.457Z,83.76
2023-09-19T04:34:35.915Z,83.62
2023-09-19T04:37:03.611Z,83.35
2023-09-19T04:39:30.751Z,83.07
2023-09-19T04:41:58.504Z,83.09
2023-09-19T04:44:25.693Z,82.96
2023-09-19T04:46:53.118Z,85.01
2023-09-19T04:49:20.441Z,84.68
2023-09-19T04:51:48.740Z,83.72
2023-09-19T04:54:16.458Z,84.04
2023-09-19T04:56:43.703Z,84.01
2023-09-19T04:59:12.288Z,85.06
2023-09-19T05:01:39.696Z,85.21
2023-09-19T05:04:06.978Z,85.35
2023-09-19T05:06:35.235Z,85.32
2023-09-19T05:09:02.498Z,85.06
2023-09-19T05:11:31.293Z,85.16
2023-09-19T05:13:58.631Z,85.06
2023-09-19T05:16:26.037Z,85.14
2023-09-19T05:18:53.730Z,85.53
2023-09-19T05:21:20.913Z,85.73
2023-09-19T05:23:48.976Z,85.46
2023-09-19T05:26:18.101Z,86.00
2023-09-19T05:28:45.374Z,85.44
2023-09-19T05:31:12.614Z,85.43
2023-09-19T05:33:39.848Z,85.38
2023-09-19T05:36:07.242Z,86.71
2023-09-19T05:38:34.419Z,86.34
2023-09-19T05:41:02.526Z,85.45
2023-09-19T05:43:29.685Z,85.27
2023-09-19T05:45:58.012Z,85.48
2023-09-19T05:48:25.251Z,85.12
2023-09-19T05:50:52.469Z,85.24
2023-09-19T05:53:20.068Z,86.30
2023-09-19T05:55:47.547Z,86.37
2023-09-19T05:58:15.948Z,86.03
2023-09-19T06:00:44.637Z,85.89
2023-09-19T06:03:13.418Z,86.20
2023-09-19T06:05:43.008Z,86.15
2023-09-19T06:08:10.871Z,85.99
2023-09-19T06:10:38.431Z,86.13
2023-09-19T06:13:06.813Z,86.75
2023-09-19T06:15:34.920Z,86.47
2023-09-19T06:18:03.786Z,86.87
2023-09-19T06:20:31.306Z,86.86
2023-09-19T06:22:59.209Z,87.22
2023-09-19T06:25:27.405Z,87.53
2023-09-19T06:27:56.315Z,87.77
2023-09-19T06:30:28.964Z,88.66
2023-09-19T06:32:58.773Z,88.25
2023-09-19T06:35:28.144Z,89.12
2023-09-19T06:37:55.518Z,89.50
2023-09-19T06:40:32.589Z,89.82
2023-09-19T06:42:59.976Z,89.67
2023-09-19T06:45:28.780Z,89.76
2023-09-19T06:48:00.044Z,90.60
2023-09-19T06:50:40.272Z,90.65
2023-09-19T06:53:07.657Z,90.45
2023-09-19T06:55:35.723Z,91.17
2023-09-19T06:58:03.082Z,91.23
2023-09-19T07:00:37.849Z,93.31
2023-09-19T07:03:09.781Z,93.51
2023-09-19T07:05:44.162Z,95.81
2023-09-19T07:08:14.250Z,94.23
2023-09-19T07:10:50.697Z,92.50
2023-09-19T07:13:18.691Z,91.68
2023-09-19T07:15:49.486Z,91.80
2023-09-19T07:18:18.304Z,91.12
2023-09-19T07:21:06.813Z,91.16
2023-09-19T07:23:36.462Z,90.24
2023-09-19T07:26:16.934Z,90.17
2023-09-19T07:29:29.950Z,90.68
2023-09-19T07:32:06.298Z,91.35
2023-09-19T07:35:04.143Z,90.55
2023-09-19T07:37:36.473Z,90.10
2023-09-19T07:40:28.623Z,90.40
2023-09-19T07:42:57.249Z,90.34
2023-09-19T07:45:38.281Z,90.07
2023-09-19T07:48:07.746Z,90.56
2023-09-19T07:50:39.377Z,91.07
2023-09-19T07:53:07.077Z,91.56
2023-09-19T07:55:35.805Z,90.99
2023-09-19T07:58:05.306Z,90.45
2023-09-19T08:00:34.335Z,90.30
2023-09-19T08:03:04.501Z,90.37
2023-09-19T08:05:35.918Z,90.39
2023-09-19T08:08:04.625Z,90.80
2023-09-19T08:10:36.942Z,90.82
2023-09-19T08:13:04.445Z,90.12
2023-09-19T08:15:36.826Z,90.56
2023-09-19T08:18:07.223Z,90.98
2023-09-19T08:20:37.617Z,90.87
2023-09-19T08:23:06.123Z,91.23
2023-09-19T08:25:33.639Z,91.43
2023-09-19T08:28:03.428Z,92.20
2023-09-19T08:30:31.821Z,91.60
2023-09-19T08:33:02.699Z,90.98
2023-09-19T08:35:30.279Z,90.60
2023-09-19T08:37:58.336Z,90.89
2023-09-19T08:40:29.033Z,89.70
2023-09-19T08:42:57.873Z,89.36
2023-09-19T08:45:29.080Z,88.49
2023-09-19T08:48:16.488Z,89.29
2023-09-19T08:50:50.285Z,87.86
2023-09-19T08:53:29.197Z,88.15
2023-09-19T08:55:58.845Z,88.44
2023-09-19T08:58:32.833Z,89.43
2023-09-19T09:01:03.599Z,88.33
2023-09-19T09:03:36.464Z,88.32
2023-09-19T09:06:04.384Z,87.92
2023-09-19T09:08:33.315Z,87.71
2023-09-19T09:11:01.002Z,88.30
2023-09-19T09:13:29.422Z,90.11
2023-09-19T09:16:12.542Z,88.49
2023-09-19T09:18:43.153Z,88.80
2023-09-19T09:21:11.860Z,89.46
2023-09-19T09:23:43.691Z,89.60
2023-09-19T09:26:11.743Z,90.53
2023-09-19T09:28:46.869Z,90.21
2023-09-19T09:31:24.994Z,90.05
2023-09-19T09:33:56.960Z,89.53
2023-09-19T09:36:54.402Z,89.55
2023-09-19T09:39:37.729Z,88.90
2023-09-19T09:42:08.200Z,89.04
2023-09-19T09:44:37.097Z,88.57
2023-09-19T09:47:39.599Z,88.01
2023-09-19T09:50:08.932Z,89.12
2023-09-19T09:52:46.734Z,88.02
2023-09-19T09:55:14.205Z,86.58
2023-09-19T09:57:43.215Z,85.80
2023-09-19T10:00:13.280Z,85.09
2023-09-19T10:02:52.004Z,86.15
2023-09-19T10:05:22.341Z,85.24
2023-09-19T10:07:54.434Z,84.66
2023-09-19T10:10:40.724Z,84.41
2023-09-19T10:13:14.294Z,82.49
2023-09-19T10:15:57.721Z,82.07
2023-09-19T10:18:29.409Z,82.59
2023-09-19T10:20:58.240Z,82.60
2023-09-19T10:23:28.664Z,82.72
2023-09-19T10:26:06.636Z,82.20
2023-09-19T10:28:35.125Z,81.98
2023-09-19T10:31:03.638Z,81.96
2023-09-19T10:33:50.844Z,81.74
2023-09-19T10:36:25.597Z,81.45
2023-09-19T10:38:57.801Z,81.74
2023-09-19T10:41:26.582Z,81.53
2023-09-19T10:43:56.516Z,81.58
2023-09-19T10:46:24.037Z,81.46
2023-09-19T10:48:56.581Z,81.69
2023-09-19T10:51:29.717Z,81.08
2023-09-19T10:54:07.802Z,80.90
2023-09-19T10:56:38.803Z,81.66
2023-09-19T10:59:13.311Z,81.97
2023-09-19T11:01:49.268Z,82.03
2023-09-19T11:04:26.454Z,81.44
2023-09-19T11:07:05.917Z,81.80
2023-09-19T11:09:56.054Z,81.99
2023-09-19T11:12:34.154Z,81.87
2023-09-19T11:15:06.137Z,82.40
2023-09-19T11:17:39.035Z,82.13
2023-09-19T11:20:17.347Z,81.83
2023-09-19T11:22:54.144Z,82.08
2023-09-19T11:25:31.902Z,81.73
2023-09-19T11:28:10.510Z,82.34
2023-09-19T11:30:41.758Z,82.24
2023-09-19T11:33:22.824Z,82.06
2023-09-19T11:36:08.489Z,82.13
2023-09-19T11:38:46.737Z,82.28
2023-09-19T11:41:27.152Z,82.70
2023-09-19T11:44:05.835Z,84.29
2023-09-19T11:46:35.885Z,82.95
2023-09-19T11:49:10.832Z,83.74
2023-09-19T11:51:46.337Z,83.99
2023-09-19T11:54:19.732Z,83.91
2023-09-19T11:56:50.765Z,84.95
2023-09-19T11:59:29.721Z,85.32
2023-09-19T12:01:59.286Z,85.54
2023-09-19T12:04:39.394Z,85.60
2023-09-19T12:07:12.435Z,86.08
2023-09-19T12:09:44.021Z,85.90
2023-09-19T12:12:14.192Z,86.13
2023-09-19T12:14:43.550Z,85.88
2023-09-19T12:17:11.423Z,85.96
2023-09-19T12:19:39.882Z,85.79
2023-09-19T12:22:07.422Z,86.50
2023-09-19T12:24:36.594Z,86.16
2023-09-19T12:27:09.088Z,87.09
2023-09-19T12:29:45.628Z,87.33
2023-09-19T12:32:14.423Z,89.30
2023-09-19T12:34:44.770Z,89.02
2023-09-19T12:37:24.512Z,89.67
2023-09-19T12:40:19.874Z,90.83
2023-09-19T12:42:48.467Z,91.84
2023-09-19T12:45:21.723Z,91.98
2023-09-19T12:48:19.004Z,93.09
2023-09-19T12:51:13.870Z,94.20
2023-09-19T12:53:45.950Z,94.75
2023-09-19T12:56:17.557Z,94.99
2023-09-19T12:58:58.115Z,94.88
2023-09-19T13:01:29.747Z,95.03
2023-09-19T13:04:14.598Z,95.74
2023-09-19T13:06:44.977Z,96.29
2023-09-19T13:09:14.971Z,96.42
2023-09-19T13:11:45.610Z,96.48
2023-09-19T13:14:24.908Z,97.27
2023-09-19T13:17:05.473Z,97.67
2023-09-19T13:19:39.541Z,98.05
2023-09-19T13:22:26.757Z,97.55
2023-09-19T13:24:54.261Z,97.84
2023-09-19T13:27:22.155Z,97.39
2023-09-19T13:29:49.742Z,97.17
2023-09-19T13:32:17.076Z,96.92
2023-09-19T13:34:44.508Z,97.44
2023-09-19T13:37:14.620Z,97.31
2023-09-19T13:39:48.917Z,97.15
2023-09-19T13:42:17.592Z,97.27
2023-09-19T13:44:45.054Z,96.77
2023-09-19T13:47:15.373Z,96.37
2023-09-19T13:49:44.223Z,96.44
2023-09-19T13:52:11.634Z,96.34
2023-09-19T13:54:41.304Z,95.62
2023-09-19T13:57:10.176Z,95.85
2023-09-19T13:59:38.726Z,96.03
2023-09-19T14:02:08.689Z,95.40
2023-09-19T14:04:37.136Z,95.11
2023-09-19T14:07:05.210Z,95.29
2023-09-19T14:09:32.529Z,95.17
2023-09-19T14:12:00.430Z,96.24
2023-09-19T14:14:27.993Z,95.69
2023-09-19T14:16:55.701Z,95.81
2023-09-19T14:19:23.222Z,95.50
2023-09-19T14:21:52.736Z,94.82
2023-09-19T14:24:20.660Z,94.33
2023-09-19T14:26:48.026Z,93.97
2023-09-19T14:29:16.776Z,94.91
2023-09-19T14:31:45.238Z,94.52
2023-09-19T14:34:14.954Z,94.38
2023-09-19T14:36:42.441Z,94.43
2023-09-19T14:39:17.158Z,93.92
2023-09-19T14:41:48.792Z,93.94
2023-09-19T14:44:21.327Z,94.26
2023-09-19T14:46:52.178Z,93.95
2023-09-19T14:49:22.344Z,94.42
2023-09-19T14:51:49.884Z,94.59
2023-09-19T14:54:18.368Z,95.24
2023-09-19T14:56:46.522Z,94.81
2023-09-19T14:59:17.782Z,94.81
2023-09-19T15:01:46.311Z,95.00
2023-09-19T15:04:15.806Z,94.79
2023-09-19T15:06:43.451Z,94.51
2023-09-19T15:09:11.313Z,94.79
2023-09-19T15:11:38.874Z,95.58
2023-09-19T15:14:06.498Z,95.37
2023-09-19T15:16:37.161Z,95.39
2023-09-19T15:19:04.500Z,95.25
2023-09-19T15:21:31.885Z,95.54
2023-09-19T15:23:59.214Z,96.03
2023-09-19T15:26:27.276Z,95.99
2023-09-19T15:28:57.980Z,95.42
2023-09-19T15:31:25.420Z,95.62
2023-09-19T15:33:53.092Z,95.20
2023-09-19T15:36:26.183Z,95.30
2023-09-19T15:39:02.804Z,95.55
2023-09-19T15:41:34.259Z,95.34
2023-09-19T15:44:11.584Z,95.42
2023-09-19T15:46:42.761Z,95.80
2023-09-19T15:49:36.314Z,95.47
2023-09-19T15:52:11.280Z,95.09
2023-09-19T15:54:51.577Z,95.26
2023-09-19T15:57:19.917Z,95.40
2023-09-19T15:59:48.572Z,95.40
2023-09-19T16:02:18.643Z,95.56
2023-09-19T16:04:46.633Z,95.23
2023-09-19T16:07:14.454Z,95.30
2023-09-19T16:09:41.807Z,95.12
2023-09-19T16:12:11.034Z,95.15
2023-09-19T16:14:43.430Z,95.47
2023-09-19T16:17:12.345Z,95.07
2023-09-19T16:19:40.021Z,95.03
2023-09-19T16:22:07.454Z,94.75
2023-09-19T16:24:36.048Z,93.69
2023-09-19T16:27:04.556Z,93.63
2023-09-19T16:29:32.456Z,94.09
2023-09-19T16:32:00.953Z,93.56
2023-09-19T16:34:29.406Z,93.54
2023-09-19T16:36:57.406Z,92.79
2023-09-19T16:39:28.484Z,92.64
2023-09-19T16:41:55.901Z,92.10
2023-09-19T16:44:24.039Z,91.85
2023-09-19T16:47:01.053Z,91.75
2023-09-19T16:49:30.301Z,91.67
2023-09-19T16:51:57.899Z,91.48
2023-09-19T16:54:25.464Z,91.25
2023-09-19T16:56:53.217Z,92.10
2023-09-19T16:59:24.878Z,90.90
2023-09-19T17:01:52.511Z,90.84
2023-09-19T17:04:19.890Z,91.20
2023-09-19T17:07:02.961Z,90.71
2023-09-19T17:09:38.220Z,89.99
2023-09-19T17:12:06.669Z,90.15
2023-09-19T17:14:39.042Z,90.70
2023-09-19T17:17:08.892Z,90.46
2023-09-19T17:19:36.474Z,91.13
2023-09-19T17:22:05.095Z,90.99
2023-09-19T17:24:35.361Z,90.89
2023-09-19T17:27:02.896Z,90.93
2023-09-19T17:29:37.770Z,91.08
2023-09-19T17:32:06.372Z,91.39
2023-09-19T17:34:34.171Z,91.67
2023-09-19T17:37:04.160Z,92.91
2023-09-19T17:39:34.609Z,92.78
2023-09-19T17:42:05.097Z,92.80
2023-09-19T17:44:36.443Z,92.80
2023-09-19T17:47:03.866Z,93.15
2023-09-19T17:49:33.600Z,93.28
2023-09-19T17:52:00.894Z,92.72
2023-09-19T17:54:28.365Z,93.38
2023-09-19T17:56:56.214Z,93.21
2023-09-19T17:59:24.556Z,93.21
2023-09-19T18:01:52.218Z,93.40
2023-09-19T18:04:22.165Z,93.04
2023-09-19T18:06:55.280Z,93.85
2023-09-19T18:09:23.276Z,93.28
2023-09-19T18:11:50.582Z,93.52
2023-09-19T18:14:19.124Z,96.43
2023-09-19T18:16:46.645Z,95.87
2023-09-19T18:19:14.360Z,96.45
2023-09-19T18:21:45.940Z,98.18
2023-09-19T18:24:15.703Z,95.39
2023-09-19T18:26:45.470Z,94.38
2023-09-19T18:29:12.935Z,93.77
2023-09-19T18:31:40.378Z,93.53
2023-09-19T18:34:08.890Z,93.88
2023-09-19T18:36:42.822Z,94.68
2023-09-19T18:39:11.606Z,94.00
2023-09-19T18:41:39.879Z,93.59
2023-09-19T18:44:07.588Z,94.13
2023-09-19T18:46:36.140Z,94.12
2023-09-19T18:49:03.533Z,94.33
2023-09-19T18:51:30.974Z,93.97
2023-09-19T18:54:11.783Z,94.25
2023-09-19T18:56:44.862Z,94.00
2023-09-19T18:59:15.739Z,95.45
2023-09-19T19:01:45.396Z,94.92
2023-09-19T19:04:13.562Z,94.07
2023-09-19T19:06:54.386Z,94.08
2023-09-19T19:09:22.122Z,94.02
2023-09-19T19:11:49.648Z,94.29
2023-09-19T19:14:18.581Z,94.09
2023-09-19T19:16:47.746Z,94.24
2023-09-19T19:19:17.888Z,93.86
2023-09-19T19:21:45.866Z,94.35
2023-09-19T19:24:14.260Z,94.38
2023-09-19T19:26:43.335Z,93.71
2023-09-19T19:29:11.253Z,94.18
2023-09-19T19:31:38.816Z,94.10
2023-09-19T19:34:12.075Z,93.87
2023-09-19T19:36:41.895Z,93.74
2023-09-19T19:39:09.912Z,93.80
2023-09-19T19:41:41.075Z,94.02
2023-09-19T19:44:12.668Z,94.58
2023-09-19T19:50:14.334Z,94.11
2023-09-19T19:52:41.663Z,94.05
2023-09-19T19:55:11.404Z,94.08
2023-09-19T19:57:40.349Z,94.50
2023-09-19T20:00:08.992Z,95.09
2023-09-19T20:02:37.570Z,95.28
2023-09-19T20:05:13.224Z,95.02
2023-09-19T20:07:40.754Z,94.99
2023-09-19T20:10:16.195Z,95.45
2023-09-19T20:12:46.693Z,96.35
2023-09-19T20:15:24.556Z,96.17
2023-09-19T20:17:52.943Z,95.81
2023-09-19T20:20:23.730Z,96.54
2023-09-19T20:22:53.593Z,96.85
2023-09-19T20:25:22.961Z,96.11
2023-09-19T20:27:59.931Z,96.41
2023-09-19T20:30:49.428Z,96.18
2023-09-19T20:33:18.866Z,96.60
2023-09-19T20:35:51.607Z,96.42
2023-09-19T20:38:18.927Z,96.21
2023-09-19T20:40:53.469Z,96.48
2023-09-19T20:43:28.033Z,96.52
2023-09-19T20:46:06.110Z,96.15
2023-09-19T20:48:38.206Z,96.38
2023-09-19T20:51:15.091Z,96.47
2023-09-19T20:53:45.838Z,96.20
2023-09-19T20:57:00.299Z,95.94
2023-09-19T20:59:41.816Z,96.83
2023-09-19T21:02:17.548Z,96.32
2023-09-19T21:04:45.062Z,96.54
2023-09-19T21:07:13.442Z,95.56
2023-09-19T21:09:45.508Z,94.94
2023-09-19T21:12:19.964Z,94.71
2023-09-19T21:14:59.540Z,96.00
2023-09-19T21:17:29.347Z,95.05
2023-09-19T21:19:57.456Z,94.17
2023-09-19T21:22:29.444Z,93.16
2023-09-19T21:25:04.403Z,93.13
2023-09-19T21:27:35.091Z,92.97
2023-09-19T21:30:51.157Z,93.25
2023-09-19T21:33:24.222Z,92.28
2023-09-19T21:35:58.127Z,91.60
2023-09-19T21:38:30.558Z,92.20
2023-09-19T21:41:09.875Z,91.92
2023-09-19T21:43:38.254Z,91.79
2023-09-19T21:46:06.100Z,92.36
2023-09-19T21:48:36.446Z,91.30
2023-09-19T21:51:07.739Z,91.20
2023-09-19T21:53:36.729Z,91.64
2023-09-19T21:56:09.005Z,91.48
2023-09-19T21:58:40.449Z,92.13
2023-09-19T22:01:09.522Z,92.39
2023-09-19T22:03:41.808Z,91.70
2023-09-19T22:06:15.378Z,91.33
2023-09-19T22:08:43.672Z,92.33
2023-09-19T22:11:12.472Z,91.42
2023-09-19T22:13:43.766Z,91.30
2023-09-19T22:16:14.061Z,91.37
2023-09-19T22:18:43.921Z,91.17
2023-09-19T22:21:15.645Z,91.18
2023-09-19T22:23:43.687Z,91.64
2023-09-19T22:26:17.801Z,91.83
2023-09-19T22:28:46.733Z,91.68
2023-09-19T22:31:19.354Z,91.50
2023-09-19T22:33:51.483Z,90.93
2023-09-19T22:36:24.978Z,91.44
2023-09-19T22:38:53.616Z,90.91
2023-09-19T22:41:22.960Z,91.13
2023-09-19T22:43:53.051Z,91.66
2023-09-19T22:46:20.647Z,91.82
2023-09-19T22:48:48.096Z,92.23
2023-09-19T22:51:23.852Z,91.75
2023-09-19T22:53:53.279Z,90.91
2023-09-19T22:56:23.877Z,91.85
2023-09-19T22:58:52.186Z,91.44
2023-09-19T23:01:30.594Z,91.38
2023-09-19T23:04:07.660Z,91.53
2023-09-19T23:06:40.078Z,91.75
2023-09-19T23:09:10.501Z,91.87
2023-09-19T23:11:40.884Z,91.91
2023-09-19T23:14:09.184Z,92.21
2023-09-19T23:16:36.593Z,91.45
2023-09-19T23:19:14.317Z,91.40
2023-09-19T23:21:46.165Z,91.80
2023-09-19T23:24:18.577Z,92.19
2023-09-19T23:26:47.390Z,91.23
2023-09-19T23:29:15.299Z,91.23
2023-09-19T23:31:45.614Z,91.10
2023-09-19T23:34:15.102Z,91.13
2023-09-19T23:36:42.626Z,92.55
2023-09-19T23:39:14.615Z,91.99
2023-09-19T23:41:41.968Z,92.37
2023-09-19T23:44:11.757Z,92.52
2023-09-19T23:46:43.749Z,92.75
2023-09-19T23:49:12.264Z,92.96
2023-09-19T23:51:40.411Z,92.96
2023-09-19T23:54:15.502Z,92.82
2023-09-19T23:56:46.880Z,92.33
2023-09-19T23:59:15.762Z,92.29
